createdAt,value
2023-01-09T00:00:59.875Z,99465.22
2023-01-09T00:03:31.857Z,99440.47
2023-01-09T00:06:03.944Z,99430.94
2023-01-09T00:08:35.963Z,99414.47
2023-01-09T00:11:08.513Z,99455.88
2023-01-09T00:13:40.535Z,99434.19
2023-01-09T00:16:12.513Z,99429.38
2023-01-09T00:18:44.749Z,99437.09
2023-01-09T00:21:17.309Z,99439.22
2023-01-09T00:23:49.634Z,99436.59
2023-01-09T00:26:22.089Z,99430.47
2023-01-09T00:28:54.562Z,99433.94
2023-01-09T00:31:26.517Z,99422.53
2023-01-09T00:33:58.461Z,99439.97
2023-01-09T00:36:30.433Z,99439.31
2023-01-09T00:39:02.515Z,99441.47
2023-01-09T00:41:46.923Z,99439.75
2023-01-09T00:44:23.901Z,99423.75
2023-01-09T00:47:03.195Z,99385.78
2023-01-09T00:49:37.114Z,99428.72
2023-01-09T00:52:11.361Z,99417.53
2023-01-09T00:54:44.050Z,99409.09
2023-01-09T00:57:16.245Z,99400.75
2023-01-09T00:59:48.225Z,99385.34
2023-01-09T01:02:20.533Z,99402.81
2023-01-09T01:05:11.182Z,99387.09
2023-01-09T01:07:43.579Z,99396.88
2023-01-09T01:10:20.557Z,99404.88
2023-01-09T01:12:53.090Z,99388.31
2023-01-09T01:15:26.998Z,99367.91
2023-01-09T01:17:58.930Z,99370.53
2023-01-09T01:20:30.853Z,99361.38
2023-01-09T01:23:02.737Z,99383.84
2023-01-09T01:25:37.661Z,99351.81
2023-01-09T01:28:10.782Z,99380.03
2023-01-09T01:30:43.738Z,99345.78
2023-01-09T01:33:15.671Z,99331.25
2023-01-09T01:35:47.536Z,99384.69
2023-01-09T01:38:19.419Z,99359.53
2023-01-09T01:40:55.057Z,99376.44
2023-01-09T01:43:26.964Z,99332.09
2023-01-09T01:45:59.067Z,99342.97
2023-01-09T01:48:32.324Z,99365.22
2023-01-09T01:51:06.990Z,99336.94
2023-01-09T01:53:45.726Z,99344.06
2023-01-09T01:56:26.060Z,99358.72
2023-01-09T01:59:01.411Z,99343.88
2023-01-09T02:01:34.466Z,99364.41
2023-01-09T02:04:06.512Z,99355.22
2023-01-09T02:06:39.311Z,99347.88
2023-01-09T02:09:13.695Z,99354.50
2023-01-09T02:11:47.047Z,99358.22
2023-01-09T02:14:22.223Z,99366.72
2023-01-09T02:17:26.621Z,99351.53
2023-01-09T02:20:20.260Z,99357.38
2023-01-09T02:23:13.855Z,99351.00
2023-01-09T02:26:21.215Z,99347.97
2023-01-09T02:28:58.810Z,99339.59
2023-01-09T02:31:57.768Z,99343.41
2023-01-09T02:34:41.624Z,99349.78
2023-01-09T02:37:41.736Z,99338.94
2023-01-09T02:40:21.730Z,99335.78
2023-01-09T02:42:55.891Z,99306.34
2023-01-09T02:45:27.830Z,99297.25
2023-01-09T02:47:59.804Z,99287.91
2023-01-09T02:50:51.110Z,99311.13
2023-01-09T02:53:51.988Z,99299.81
2023-01-09T02:56:45.470Z,99317.44
2023-01-09T02:59:54.017Z,99311.66
2023-01-09T03:02:42.477Z,99298.16
2023-01-09T03:05:34.710Z,99327.00
2023-01-09T03:08:16.164Z,99321.97
2023-01-09T03:11:09.269Z,99305.44
2023-01-09T03:13:50.937Z,99304.19
2023-01-09T03:16:33.224Z,99308.91
2023-01-09T03:19:10.927Z,99307.97
2023-01-09T03:21:45.171Z,99293.84
2023-01-09T03:24:17.139Z,99297.31
2023-01-09T03:26:49.336Z,99298.50
2023-01-09T03:29:22.118Z,99280.38
2023-01-09T03:31:54.090Z,99269.88
2023-01-09T03:34:25.972Z,99262.97
2023-01-09T03:36:57.875Z,99269.81
2023-01-09T03:39:29.801Z,99245.94
2023-01-09T03:42:01.786Z,99262.41
2023-01-09T03:44:33.651Z,99273.34
2023-01-09T03:47:05.541Z,99266.31
2023-01-09T03:49:37.406Z,99246.91
2023-01-09T03:52:09.356Z,99254.56
2023-01-09T03:54:41.323Z,99238.38
2023-01-09T03:57:13.868Z,99256.97
2023-01-09T03:59:45.819Z,99239.28
2023-01-09T04:02:18.497Z,99230.34
2023-01-09T04:04:50.426Z,99196.13
2023-01-09T04:07:22.361Z,99232.63
2023-01-09T04:09:54.367Z,99226.94
2023-01-09T04:12:26.313Z,99235.59
2023-01-09T04:14:58.478Z,99247.00
2023-01-09T04:17:30.486Z,99235.00
2023-01-09T04:20:02.539Z,99250.31
2023-01-09T04:22:34.521Z,99263.47
2023-01-09T04:25:06.939Z,99240.81
2023-01-09T04:27:39.138Z,99260.53
2023-01-09T04:30:11.669Z,99258.31
2023-01-09T04:32:43.710Z,99239.00
2023-01-09T04:35:15.649Z,99222.41
2023-01-09T04:37:47.885Z,99253.41
2023-01-09T04:40:20.097Z,99236.81
2023-01-09T04:42:52.189Z,99249.84
2023-01-09T04:45:24.137Z,99197.66
2023-01-09T04:47:56.089Z,99246.91
2023-01-09T04:50:28.043Z,99239.13
2023-01-09T04:53:00.032Z,99242.03
2023-01-09T04:55:32.117Z,99240.88
2023-01-09T04:58:04.085Z,99222.34
2023-01-09T05:00:36.101Z,99215.66
2023-01-09T05:03:07.972Z,99232.50
2023-01-09T05:05:39.797Z,99211.16
2023-01-09T05:08:11.747Z,99229.22
2023-01-09T05:10:43.689Z,99226.38
2023-01-09T05:13:15.666Z,99226.38
2023-01-09T05:15:47.607Z,99199.22
2023-01-09T05:18:19.684Z,99205.81
2023-01-09T05:20:51.711Z,99198.41
2023-01-09T05:23:23.836Z,99203.00
2023-01-09T05:25:55.791Z,99193.19
2023-01-09T05:28:27.716Z,99178.13
2023-01-09T05:30:59.713Z,99180.91
2023-01-09T05:33:31.684Z,99182.16
2023-01-09T05:36:03.605Z,99186.03
2023-01-09T05:38:35.613Z,99183.44
2023-01-09T05:41:07.941Z,99183.16
2023-01-09T05:43:39.867Z,99176.50
2023-01-09T05:46:11.873Z,99168.97
2023-01-09T05:48:44.813Z,99185.75
2023-01-09T05:51:16.707Z,99167.78
2023-01-09T05:53:48.918Z,99189.13
2023-01-09T05:56:20.789Z,99143.19
2023-01-09T05:58:52.723Z,99167.03
2023-01-09T06:01:24.671Z,99182.00
2023-01-09T06:03:56.620Z,99183.09
2023-01-09T06:06:29.277Z,99174.94
2023-01-09T06:09:01.283Z,99164.84
2023-01-09T06:11:36.154Z,99175.94
2023-01-09T06:14:11.107Z,99183.44
2023-01-09T06:16:43.066Z,99157.50
2023-01-09T06:19:15.245Z,99133.53
2023-01-09T06:21:47.338Z,99169.88
2023-01-09T06:24:19.445Z,99197.03
2023-01-09T06:26:51.359Z,99171.16
2023-01-09T06:29:23.904Z,99184.91
2023-01-09T06:31:55.891Z,99196.28
2023-01-09T06:34:27.887Z,99188.69
2023-01-09T06:37:00.005Z,99161.72
2023-01-09T06:39:32.008Z,99169.97
2023-01-09T06:42:04.160Z,99196.47
2023-01-09T06:44:37.138Z,99193.25
2023-01-09T06:47:09.198Z,99165.84
2023-01-09T06:49:41.148Z,99172.34
2023-01-09T06:52:13.094Z,99168.03
2023-01-09T06:54:45.025Z,99160.34
2023-01-09T06:57:16.973Z,99162.34
2023-01-09T06:59:48.941Z,99150.78
2023-01-09T07:02:22.462Z,99169.22
2023-01-09T07:04:54.437Z,99149.22
2023-01-09T07:07:26.465Z,99162.81
2023-01-09T07:09:58.427Z,99177.66
2023-01-09T07:12:33.350Z,99168.22
2023-01-09T07:15:05.902Z,99147.66
2023-01-09T07:17:37.851Z,99155.00
2023-01-09T07:20:10.582Z,99158.41
2023-01-09T07:22:42.521Z,99164.72
2023-01-09T07:25:14.557Z,99150.53
2023-01-09T07:27:46.558Z,99150.63
2023-01-09T07:30:18.631Z,99137.25
2023-01-09T07:32:50.487Z,99126.03
2023-01-09T07:35:22.341Z,99119.34
2023-01-09T07:37:54.235Z,99119.44
2023-01-09T07:40:27.338Z,99121.84
2023-01-09T07:42:59.188Z,99127.53
2023-01-09T07:45:31.115Z,99139.38
2023-01-09T07:48:02.942Z,99127.44
2023-01-09T07:50:35.001Z,99132.56
2023-01-09T07:53:06.938Z,99119.84
2023-01-09T07:55:39.263Z,99142.66
2023-01-09T07:58:11.246Z,99138.06
2023-01-09T08:00:43.181Z,99125.22
2023-01-09T08:03:15.162Z,99137.78
2023-01-09T08:05:47.106Z,99105.00
2023-01-09T08:08:19.078Z,99108.00
2023-01-09T08:10:51.427Z,99126.50
2023-01-09T08:13:23.440Z,99107.06
2023-01-09T08:15:55.467Z,99114.69
2023-01-09T08:18:27.560Z,99085.34
2023-01-09T08:20:59.626Z,99116.50
2023-01-09T08:23:31.590Z,99117.78
2023-01-09T08:26:04.556Z,99115.38
2023-01-09T08:28:36.705Z,99092.75
2023-01-09T08:31:08.959Z,99099.09
2023-01-09T08:33:40.987Z,99100.72
2023-01-09T08:36:13.003Z,99077.53
2023-01-09T08:38:44.877Z,99113.47
2023-01-09T08:41:35.791Z,99081.03
2023-01-09T08:44:26.061Z,99112.16
2023-01-09T08:47:07.126Z,99114.53
2023-01-09T08:49:39.815Z,99097.69
2023-01-09T08:52:12.591Z,99105.38
2023-01-09T08:54:44.533Z,99108.50
2023-01-09T08:57:16.626Z,99107.25
2023-01-09T08:59:48.899Z,99056.69
2023-01-09T09:02:20.908Z,99110.19
2023-01-09T09:04:53.736Z,99090.59
2023-01-09T09:07:28.690Z,99105.06
2023-01-09T09:10:00.617Z,99081.94
2023-01-09T09:12:32.494Z,99087.06
2023-01-09T09:15:13.691Z,99100.84
2023-01-09T09:17:45.983Z,99100.59
2023-01-09T09:20:17.986Z,99112.97
2023-01-09T09:22:50.604Z,99115.34
2023-01-09T09:25:23.116Z,99116.91
2023-01-09T09:27:56.698Z,99079.03
2023-01-09T09:30:28.823Z,99082.66
2023-01-09T09:33:03.358Z,99094.91
2023-01-09T09:35:35.571Z,99079.88
2023-01-09T09:38:07.526Z,99076.63
2023-01-09T09:41:39.661Z,99095.16
2023-01-09T09:44:53.430Z,99082.69
2023-01-09T09:47:56.475Z,99063.31
2023-01-09T09:50:46.635Z,99089.09
2023-01-09T09:53:31.309Z,99058.31
2023-01-09T09:56:05.487Z,99080.84
2023-01-09T09:58:41.131Z,99090.94
2023-01-09T10:01:19.462Z,99074.25
2023-01-09T10:03:56.074Z,99070.25
2023-01-09T10:06:50.488Z,99066.66
2023-01-09T10:09:48.042Z,99075.63
2023-01-09T10:12:19.936Z,99077.84
2023-01-09T10:14:51.908Z,99018.06
2023-01-09T10:17:55.140Z,99072.19
2023-01-09T10:20:49.457Z,99066.13
2023-01-09T10:23:26.803Z,99058.13
2023-01-09T10:26:10.503Z,99046.28
2023-01-09T10:29:20.369Z,99042.56
2023-01-09T10:31:58.627Z,99061.91
2023-01-09T10:34:48.934Z,99057.50
2023-01-09T10:37:36.719Z,99057.91
2023-01-09T10:40:26.102Z,99063.78
2023-01-09T10:43:09.970Z,99027.53
2023-01-09T10:45:52.990Z,99052.13
2023-01-09T10:48:32.614Z,99024.16
2023-01-09T10:51:19.822Z,99017.78
2023-01-09T10:53:54.711Z,99036.09
2023-01-09T10:56:30.970Z,99030.09
2023-01-09T10:59:03.206Z,98999.13
2023-01-09T11:01:39.711Z,98970.84
2023-01-09T11:04:34.647Z,99018.78
2023-01-09T11:07:18.767Z,98985.97
2023-01-09T11:09:58.542Z,98984.84
2023-01-09T11:12:32.922Z,99002.72
2023-01-09T11:15:16.959Z,99003.44
2023-01-09T11:17:51.546Z,98986.88
2023-01-09T11:20:23.509Z,98997.47
2023-01-09T11:22:58.210Z,98998.16
2023-01-09T11:25:30.172Z,98984.91
2023-01-09T11:28:02.102Z,98998.34
2023-01-09T11:30:38.187Z,98974.31
2023-01-09T11:33:16.309Z,98982.09
2023-01-09T11:35:58.228Z,98969.75
2023-01-09T11:38:33.665Z,98963.56
2023-01-09T11:41:07.094Z,98941.78
2023-01-09T11:43:40.358Z,98928.59
2023-01-09T11:46:41.904Z,98941.13
2023-01-09T11:49:22.952Z,98955.81
2023-01-09T11:52:06.109Z,98961.47
2023-01-09T11:54:43.471Z,98935.66
2023-01-09T11:57:16.061Z,98946.94
2023-01-09T11:59:48.067Z,98953.28
2023-01-09T12:02:41.563Z,98956.25
2023-01-09T12:05:47.320Z,98951.00
2023-01-09T12:08:29.126Z,98950.06
2023-01-09T12:11:25.597Z,98934.81
2023-01-09T12:14:24.716Z,98930.88
2023-01-09T12:17:17.961Z,98928.19
2023-01-09T12:20:14.357Z,98930.28
2023-01-09T12:23:08.015Z,98932.72
2023-01-09T12:26:04.854Z,98938.72
2023-01-09T12:28:56.492Z,98929.97
2023-01-09T12:31:50.174Z,98938.38
2023-01-09T12:34:32.668Z,98928.75
2023-01-09T12:37:18.404Z,98937.31
2023-01-09T12:40:22.214Z,98921.19
2023-01-09T12:43:12.873Z,98931.53
2023-01-09T12:45:53.808Z,98933.16
2023-01-09T12:48:59.781Z,98924.94
2023-01-09T12:51:35.744Z,98931.41
2023-01-09T12:54:13.432Z,98930.69
2023-01-09T12:57:03.396Z,98932.09
2023-01-09T12:59:57.454Z,98930.69
2023-01-09T13:02:39.458Z,98931.06
2023-01-09T13:05:18.738Z,98913.09
2023-01-09T13:08:29.737Z,98930.84
2023-01-09T13:11:19.285Z,98931.53
2023-01-09T13:14:14.706Z,98919.94
2023-01-09T13:16:53.884Z,98920.09
2023-01-09T13:19:34.149Z,98908.47
2023-01-09T13:22:07.955Z,98895.72
2023-01-09T13:24:58.531Z,98914.84
2023-01-09T13:27:39.406Z,98901.09
2023-01-09T13:30:11.263Z,98913.34
2023-01-09T13:33:12.420Z,98906.19
2023-01-09T13:35:55.722Z,98904.88
2023-01-09T13:38:31.010Z,98884.25
2023-01-09T13:41:34.311Z,98891.75
2023-01-09T13:44:08.093Z,98896.34
2023-01-09T13:46:43.823Z,98891.53
2023-01-09T13:50:09.567Z,98895.22
2023-01-09T13:52:43.336Z,98895.47
2023-01-09T13:55:15.269Z,98894.53
2023-01-09T13:58:05.093Z,98895.94
2023-01-09T14:00:37.328Z,98895.03
2023-01-09T14:03:39.211Z,98891.53
2023-01-09T14:06:14.537Z,98886.69
2023-01-09T14:08:48.284Z,98835.19
2023-01-09T14:11:22.814Z,98889.38
2023-01-09T14:14:02.098Z,98891.50
2023-01-09T14:16:36.436Z,98885.41
2023-01-09T14:19:17.701Z,98889.38
2023-01-09T14:21:54.842Z,98880.69
2023-01-09T14:24:44.403Z,98879.09
2023-01-09T14:27:54.120Z,98883.06
2023-01-09T14:30:26.051Z,98884.13
2023-01-09T14:33:19.515Z,98888.94
2023-01-09T14:36:15.815Z,98891.03
2023-01-09T14:39:09.932Z,98886.38
2023-01-09T14:42:06.707Z,98877.91
2023-01-09T14:44:47.753Z,98888.38
2023-01-09T14:47:31.853Z,98896.22
2023-01-09T14:50:11.908Z,98901.72
2023-01-09T14:52:52.325Z,98901.72
2023-01-09T14:55:34.872Z,98907.00
2023-01-09T14:58:18.704Z,98906.88
2023-01-09T15:01:17.249Z,98904.56
2023-01-09T15:03:52.721Z,98899.41
2023-01-09T15:06:30.220Z,98878.50
2023-01-09T15:09:35.238Z,98901.63
2023-01-09T15:12:11.177Z,98908.75
2023-01-09T15:14:46.216Z,98911.13
2023-01-09T15:17:24.433Z,98915.09
2023-01-09T15:19:57.936Z,98909.59
2023-01-09T15:22:34.968Z,98914.16
2023-01-09T15:25:39.858Z,98921.78
2023-01-09T15:28:40.589Z,98916.75
2023-01-09T15:31:18.361Z,98920.97
2023-01-09T15:33:53.850Z,98917.56
2023-01-09T15:36:28.578Z,98917.94
2023-01-09T15:39:00.800Z,98915.38
2023-01-09T15:41:51.495Z,98901.72
2023-01-09T15:44:26.731Z,98909.34
2023-01-09T15:47:00.764Z,98913.94
2023-01-09T15:49:34.189Z,98915.69
2023-01-09T15:52:12.205Z,98908.22
2023-01-09T15:54:49.516Z,98916.97
2023-01-09T15:57:27.768Z,98924.03
2023-01-09T16:00:33.788Z,98924.97
2023-01-09T16:03:17.742Z,98934.22
2023-01-09T16:05:51.782Z,98927.91
2023-01-09T16:08:34.693Z,98926.50
2023-01-09T16:11:22.701Z,98916.75
2023-01-09T16:13:57.362Z,98919.00
2023-01-09T16:16:34.066Z,98925.31
2023-01-09T16:19:06.547Z,98905.63
2023-01-09T16:21:38.794Z,98932.13
2023-01-09T16:24:16.975Z,98928.38
2023-01-09T16:26:52.963Z,98926.72
2023-01-09T16:29:36.146Z,98917.81
2023-01-09T16:32:19.879Z,98935.63
2023-01-09T16:34:57.497Z,98953.94
2023-01-09T16:37:29.895Z,98931.53
2023-01-09T16:40:23.220Z,98956.28
2023-01-09T16:43:03.763Z,98951.13
2023-01-09T16:45:40.215Z,98957.94
2023-01-09T16:48:16.024Z,98948.06
2023-01-09T16:50:48.057Z,98947.59
2023-01-09T16:53:32.281Z,98951.47
2023-01-09T16:56:04.645Z,98969.56
2023-01-09T16:58:36.750Z,98969.69
2023-01-09T17:01:10.743Z,98965.94
2023-01-09T17:03:44.197Z,98965.94
2023-01-09T17:06:19.398Z,98971.69
2023-01-09T17:08:51.966Z,98961.44
2023-01-09T17:11:30.594Z,98918.53
2023-01-09T17:14:02.790Z,98958.03
2023-01-09T17:16:38.762Z,98980.22
2023-01-09T17:19:18.069Z,98973.78
2023-01-09T17:21:50.119Z,98982.00
2023-01-09T17:24:40.927Z,98973.53
2023-01-09T17:27:31.173Z,98972.63
2023-01-09T17:30:17.629Z,98962.66
2023-01-09T17:32:50.121Z,98961.13
2023-01-09T17:35:21.989Z,98981.66
2023-01-09T17:37:54.003Z,98983.38
2023-01-09T17:40:27.753Z,98948.97
2023-01-09T17:42:59.726Z,98982.69
2023-01-09T17:45:31.677Z,98980.72
2023-01-09T17:48:03.845Z,98971.03
2023-01-09T17:50:36.750Z,98987.63
2023-01-09T17:53:08.750Z,98986.69
2023-01-09T17:55:42.177Z,98996.06
2023-01-09T17:58:40.477Z,99001.25
2023-01-09T18:01:14.883Z,99004.63
2023-01-09T18:03:49.232Z,98996.66
2023-01-09T18:06:22.689Z,99012.38
2023-01-09T18:08:57.288Z,99003.44
2023-01-09T18:11:30.313Z,99017.19
2023-01-09T18:14:02.265Z,98954.72
2023-01-09T18:16:34.823Z,99001.91
2023-01-09T18:19:07.055Z,98991.97
2023-01-09T18:21:38.970Z,98950.50
2023-01-09T18:24:10.927Z,99020.84
2023-01-09T18:26:43.079Z,98996.06
2023-01-09T18:29:15.571Z,99002.50
2023-01-09T18:31:48.452Z,99001.09
2023-01-09T18:34:20.552Z,99009.09
2023-01-09T18:36:52.499Z,99021.88
2023-01-09T18:39:24.620Z,99014.81
2023-01-09T18:41:56.609Z,99003.22
2023-01-09T18:44:28.631Z,99039.47
2023-01-09T18:47:02.006Z,99027.13
2023-01-09T18:49:34.057Z,99006.72
2023-01-09T18:52:07.631Z,99003.94
2023-01-09T18:54:39.932Z,99006.75
2023-01-09T18:57:12.423Z,99035.25
2023-01-09T18:59:44.376Z,99023.63
2023-01-09T19:02:20.431Z,99040.63
2023-01-09T19:04:53.096Z,99043.56
2023-01-09T19:07:25.066Z,99043.53
2023-01-09T19:09:56.975Z,99049.88
2023-01-09T19:12:28.897Z,99055.84
2023-01-09T19:15:00.880Z,99048.09
2023-01-09T19:17:33.721Z,99047.66
2023-01-09T19:20:07.198Z,99046.31
2023-01-09T19:22:39.331Z,99038.06
2023-01-09T19:25:12.740Z,99052.31
2023-01-09T19:27:44.678Z,99057.84
2023-01-09T19:30:17.100Z,99050.84
2023-01-09T19:32:49.105Z,99066.88
2023-01-09T19:35:21.073Z,99059.00
2023-01-09T19:37:53.017Z,99084.25
2023-01-09T19:40:25.919Z,99056.47
2023-01-09T19:42:58.405Z,99087.16
2023-01-09T19:45:30.372Z,99070.25
2023-01-09T19:48:02.379Z,99062.34
2023-01-09T19:50:34.344Z,99079.31
2023-01-09T19:53:06.312Z,99086.00
2023-01-09T19:55:38.835Z,99076.47
2023-01-09T19:58:11.436Z,99084.06
2023-01-09T20:00:43.814Z,99082.53
2023-01-09T20:03:15.795Z,99090.38
2023-01-09T20:05:47.767Z,99088.53
2023-01-09T20:08:19.760Z,99032.59
2023-01-09T20:10:51.690Z,99077.63
2023-01-09T20:13:23.728Z,99100.44
2023-01-09T20:15:58.767Z,99118.13
2023-01-09T20:18:32.657Z,99110.41
2023-01-09T20:21:05.023Z,99109.59
2023-01-09T20:23:37.915Z,99116.91
2023-01-09T20:26:09.860Z,99112.16
2023-01-09T20:28:41.811Z,99053.16
2023-01-09T20:31:16.778Z,99084.75
2023-01-09T20:33:51.120Z,99144.13
2023-01-09T20:36:27.845Z,99137.81
2023-01-09T20:39:02.119Z,99129.56
2023-01-09T20:41:34.542Z,99125.56
2023-01-09T20:44:09.977Z,99102.72
2023-01-09T20:46:45.164Z,99130.38
2023-01-09T20:49:20.911Z,99152.47
2023-01-09T20:51:53.349Z,99147.09
2023-01-09T20:54:25.568Z,99152.91
2023-01-09T20:56:57.582Z,99132.69
2023-01-09T20:59:29.726Z,99135.38
2023-01-09T21:02:01.653Z,99142.50
2023-01-09T21:04:33.735Z,99143.09
2023-01-09T21:07:05.658Z,99166.41
2023-01-09T21:09:37.615Z,99159.19
2023-01-09T21:12:28.925Z,99128.94
2023-01-09T21:15:11.985Z,99169.81
2023-01-09T21:17:44.548Z,99180.50
2023-01-09T21:20:16.569Z,99177.41
2023-01-09T21:22:49.659Z,99194.81
2023-01-09T21:25:21.536Z,99188.22
2023-01-09T21:27:53.530Z,99182.94
2023-01-09T21:30:25.566Z,99180.84
2023-01-09T21:32:57.555Z,99183.31
2023-01-09T21:35:29.525Z,99207.69
2023-01-09T21:38:02.502Z,99173.25
2023-01-09T21:40:34.486Z,99205.50
2023-01-09T21:43:25.047Z,99207.19
2023-01-09T21:46:19.826Z,99214.81
2023-01-09T21:48:51.826Z,99221.50
2023-01-09T21:51:24.012Z,99216.47
2023-01-09T21:53:56.009Z,99174.75
2023-01-09T21:56:28.171Z,99230.91
2023-01-09T21:59:00.401Z,99221.31
2023-01-09T22:01:32.420Z,99211.44
2023-01-09T22:04:04.557Z,99238.03
2023-01-09T22:06:36.667Z,99249.44
2023-01-09T22:09:09.275Z,99247.28
2023-01-09T22:11:42.198Z,99268.03
2023-01-09T22:14:17.232Z,99267.53
2023-01-09T22:16:49.177Z,99235.66
2023-01-09T22:19:21.392Z,99261.34
2023-01-09T22:21:53.376Z,99239.59
2023-01-09T22:24:25.289Z,99251.25
2023-01-09T22:26:57.234Z,99230.44
2023-01-09T22:29:29.373Z,99252.50
2023-01-09T22:32:01.614Z,99243.22
2023-01-09T22:34:33.835Z,99236.00
2023-01-09T22:37:08.557Z,99255.69
2023-01-09T22:39:40.507Z,99244.25
2023-01-09T22:42:12.457Z,99255.19
2023-01-09T22:44:44.401Z,99265.16
2023-01-09T22:47:18.456Z,99216.34
2023-01-09T22:49:53.060Z,99214.47
2023-01-09T22:52:25.426Z,99188.22
2023-01-09T22:54:57.390Z,99251.88
2023-01-09T22:57:29.495Z,99156.31
2023-01-09T23:00:01.503Z,99236.03
2023-01-09T23:02:33.613Z,99270.63
2023-01-09T23:05:06.199Z,99230.78
2023-01-09T23:07:38.150Z,99272.41
2023-01-09T23:10:10.933Z,99228.22
2023-01-09T23:12:47.979Z,99270.47
2023-01-09T23:15:19.971Z,99285.06
2023-01-09T23:17:52.134Z,99268.28
2023-01-09T23:20:24.267Z,99259.41
2023-01-09T23:22:58.305Z,99280.75
2023-01-09T23:25:31.413Z,99290.31
2023-01-09T23:28:21.533Z,99176.50
2023-01-09T23:31:01.368Z,99184.75
2023-01-09T23:33:46.420Z,99218.09
2023-01-09T23:36:22.818Z,99262.72
2023-01-09T23:38:57.509Z,99268.19
2023-01-09T23:41:49.774Z,99216.28
2023-01-09T23:44:21.792Z,99271.28
2023-01-09T23:46:54.208Z,99336.13
2023-01-09T23:49:29.235Z,99330.44
2023-01-09T23:52:08.936Z,99268.00
2023-01-09T23:54:44.042Z,99274.59
2023-01-09T23:57:16.011Z,99253.66
2023-01-09T23:59:49.369Z,99274.38
